sensor_id;sensor_type;location;lat;lon;timestamp;P1;durP1;ratioP1;P2;durP2;ratioP2
18748;SDS011;9503;53.560;10.246;2023-05-06T00:01:57;10.53;;;5.80;;
18748;SDS011;9503;53.560;10.246;2023-05-06T00:04:23;11.63;;;5.67;;
18748;SDS011;9503;53.560;10.246;2023-05-06T00:06:50;13.87;;;5.80;;
18748;SDS011;9503;53.560;10.246;2023-05-06T00:09:17;11.97;;;5.57;;
18748;SDS011;9503;53.560;10.246;2023-05-06T00:11:45;12.67;;;5.40;;
18748;SDS011;9503;53.560;10.246;2023-05-06T00:14:12;17.13;;;5.93;;
18748;SDS011;9503;53.560;10.246;2023-05-06T00:16:39;16.27;;;5.33;;
18748;SDS011;9503;53.560;10.246;2023-05-06T00:19:05;13.17;;;5.90;;
18748;SDS011;9503;53.560;10.246;2023-05-06T00:21:32;10.23;;;5.33;;
18748;SDS011;9503;53.560;10.246;2023-05-06T00:23:59;8.80;;;4.93;;
18748;SDS011;9503;53.560;10.246;2023-05-06T00:26:25;14.53;;;6.47;;
18748;SDS011;9503;53.560;10.246;2023-05-06T00:28:53;11.10;;;6.33;;
18748;SDS011;9503;53.560;10.246;2023-05-06T00:31:20;13.40;;;5.90;;
18748;SDS011;9503;53.560;10.246;2023-05-06T00:33:46;12.93;;;5.90;;
18748;SDS011;9503;53.560;10.246;2023-05-06T00:36:13;9.67;;;5.20;;
18748;SDS011;9503;53.560;10.246;2023-05-06T00:38:40;9.50;;;5.43;;
18748;SDS011;9503;53.560;10.246;2023-05-06T00:41:06;13.40;;;5.90;;
18748;SDS011;9503;53.560;10.246;2023-05-06T00:43:33;14.63;;;5.93;;
18748;SDS011;9503;53.560;10.246;2023-05-06T00:46:01;12.30;;;6.50;;
18748;SDS011;9503;53.560;10.246;2023-05-06T00:48:28;11.13;;;5.33;;
18748;SDS011;9503;53.560;10.246;2023-05-06T00:50:54;9.50;;;5.73;;
18748;SDS011;9503;53.560;10.246;2023-05-06T00:53:21;13.97;;;5.60;;
18748;SDS011;9503;53.560;10.246;2023-05-06T00:55:48;11.03;;;5.33;;
18748;SDS011;9503;53.560;10.246;2023-05-06T00:58:15;12.30;;;5.00;;
18748;SDS011;9503;53.560;10.246;2023-05-06T01:00:44;10.77;;;5.80;;
18748;SDS011;9503;53.560;10.246;2023-05-06T01:03:12;13.00;;;5.83;;
18748;SDS011;9503;53.560;10.246;2023-05-06T01:05:40;11.90;;;6.47;;
18748;SDS011;9503;53.560;10.246;2023-05-06T01:08:15;11.67;;;5.50;;
18748;SDS011;9503;53.560;10.246;2023-05-06T01:10:51;12.63;;;5.40;;
18748;SDS011;9503;53.560;10.246;2023-05-06T01:13:20;14.90;;;5.63;;
18748;SDS011;9503;53.560;10.246;2023-05-06T01:15:55;13.57;;;5.43;;
18748;SDS011;9503;53.560;10.246;2023-05-06T01:18:30;11.80;;;6.60;;
18748;SDS011;9503;53.560;10.246;2023-05-06T01:20:58;11.33;;;5.70;;
18748;SDS011;9503;53.560;10.246;2023-05-06T01:23:27;11.57;;;6.10;;
18748;SDS011;9503;53.560;10.246;2023-05-06T01:25:53;13.33;;;6.03;;
18748;SDS011;9503;53.560;10.246;2023-05-06T01:28:20;16.80;;;6.20;;
18748;SDS011;9503;53.560;10.246;2023-05-06T01:30:48;11.00;;;5.83;;
18748;SDS011;9503;53.560;10.246;2023-05-06T01:33:22;13.20;;;5.90;;
18748;SDS011;9503;53.560;10.246;2023-05-06T01:36:00;10.10;;;5.90;;
18748;SDS011;9503;53.560;10.246;2023-05-06T01:38:36;12.43;;;5.50;;
18748;SDS011;9503;53.560;10.246;2023-05-06T01:41:09;9.80;;;5.40;;
18748;SDS011;9503;53.560;10.246;2023-05-06T01:43:42;10.20;;;6.60;;
18748;SDS011;9503;53.560;10.246;2023-05-06T01:46:10;14.47;;;6.37;;
18748;SDS011;9503;53.560;10.246;2023-05-06T01:48:40;10.87;;;6.33;;
18748;SDS011;9503;53.560;10.246;2023-05-06T01:51:08;14.30;;;6.37;;
18748;SDS011;9503;53.560;10.246;2023-05-06T01:53:36;9.53;;;5.80;;
18748;SDS011;9503;53.560;10.246;2023-05-06T01:56:02;15.27;;;6.63;;
18748;SDS011;9503;53.560;10.246;2023-05-06T01:58:29;12.77;;;5.93;;
18748;SDS011;9503;53.560;10.246;2023-05-06T02:00:56;12.30;;;6.30;;
18748;SDS011;9503;53.560;10.246;2023-05-06T02:03:23;17.53;;;7.00;;
18748;SDS011;9503;53.560;10.246;2023-05-06T02:05:51;12.93;;;6.77;;
18748;SDS011;9503;53.560;10.246;2023-05-06T02:08:18;10.67;;;6.40;;
18748;SDS011;9503;53.560;10.246;2023-05-06T02:10:46;11.17;;;6.70;;
18748;SDS011;9503;53.560;10.246;2023-05-06T02:13:12;11.17;;;6.13;;
18748;SDS011;9503;53.560;10.246;2023-05-06T02:15:39;11.63;;;6.33;;
18748;SDS011;9503;53.560;10.246;2023-05-06T02:18:06;14.60;;;6.40;;
18748;SDS011;9503;53.560;10.246;2023-05-06T02:20:32;7.80;;;5.43;;
18748;SDS011;9503;53.560;10.246;2023-05-06T02:22:59;11.57;;;6.63;;
18748;SDS011;9503;53.560;10.246;2023-05-06T02:25:26;9.30;;;5.60;;
18748;SDS011;9503;53.560;10.246;2023-05-06T02:27:54;11.83;;;6.67;;
18748;SDS011;9503;53.560;10.246;2023-05-06T02:30:20;12.27;;;6.27;;
18748;SDS011;9503;53.560;10.246;2023-05-06T02:32:47;11.80;;;6.40;;
18748;SDS011;9503;53.560;10.246;2023-05-06T02:35:13;13.23;;;6.30;;
18748;SDS011;9503;53.560;10.246;2023-05-06T02:37:40;11.30;;;6.80;;
18748;SDS011;9503;53.560;10.246;2023-05-06T02:40:07;10.90;;;6.70;;
18748;SDS011;9503;53.560;10.246;2023-05-06T02:42:34;10.87;;;6.33;;
18748;SDS011;9503;53.560;10.246;2023-05-06T02:45:02;18.93;;;7.17;;
18748;SDS011;9503;53.560;10.246;2023-05-06T02:47:29;17.50;;;7.13;;
18748;SDS011;9503;53.560;10.246;2023-05-06T02:49:56;15.47;;;6.73;;
18748;SDS011;9503;53.560;10.246;2023-05-06T02:52:23;11.77;;;6.70;;
18748;SDS011;9503;53.560;10.246;2023-05-06T02:54:50;11.57;;;6.40;;
18748;SDS011;9503;53.560;10.246;2023-05-06T02:57:17;11.63;;;6.53;;
18748;SDS011;9503;53.560;10.246;2023-05-06T02:59:43;14.90;;;7.20;;
18748;SDS011;9503;53.560;10.246;2023-05-06T03:02:11;10.20;;;6.37;;
18748;SDS011;9503;53.560;10.246;2023-05-06T03:04:38;10.80;;;6.93;;
18748;SDS011;9503;53.560;10.246;2023-05-06T03:07:05;9.87;;;6.77;;
18748;SDS011;9503;53.560;10.246;2023-05-06T03:09:31;10.60;;;6.90;;
18748;SDS011;9503;53.560;10.246;2023-05-06T03:11:58;12.07;;;6.93;;
18748;SDS011;9503;53.560;10.246;2023-05-06T03:14:26;12.77;;;6.90;;
18748;SDS011;9503;53.560;10.246;2023-05-06T03:16:52;10.07;;;6.40;;
18748;SDS011;9503;53.560;10.246;2023-05-06T03:19:20;12.17;;;7.03;;
18748;SDS011;9503;53.560;10.246;2023-05-06T03:21:47;13.60;;;7.00;;
18748;SDS011;9503;53.560;10.246;2023-05-06T03:24:13;12.47;;;7.03;;
18748;SDS011;9503;53.560;10.246;2023-05-06T03:26:40;11.53;;;6.53;;
18748;SDS011;9503;53.560;10.246;2023-05-06T03:29:07;11.30;;;6.73;;
18748;SDS011;9503;53.560;10.246;2023-05-06T03:31:33;12.63;;;6.53;;
18748;SDS011;9503;53.560;10.246;2023-05-06T03:34:00;13.33;;;6.87;;
18748;SDS011;9503;53.560;10.246;2023-05-06T03:36:28;11.13;;;7.30;;
18748;SDS011;9503;53.560;10.246;2023-05-06T03:38:55;12.20;;;7.80;;
18748;SDS011;9503;53.560;10.246;2023-05-06T03:41:22;13.57;;;6.83;;
18748;SDS011;9503;53.560;10.246;2023-05-06T03:43:49;14.23;;;7.07;;
18748;SDS011;9503;53.560;10.246;2023-05-06T03:46:16;11.57;;;8.03;;
18748;SDS011;9503;53.560;10.246;2023-05-06T03:48:43;11.90;;;7.47;;
18748;SDS011;9503;53.560;10.246;2023-05-06T03:51:09;14.00;;;7.57;;
18748;SDS011;9503;53.560;10.246;2023-05-06T03:53:37;13.97;;;8.43;;
18748;SDS011;9503;53.560;10.246;2023-05-06T03:56:04;13.07;;;7.23;;
18748;SDS011;9503;53.560;10.246;2023-05-06T03:58:32;15.03;;;7.30;;
18748;SDS011;9503;53.560;10.246;2023-05-06T04:00:58;11.47;;;7.13;;
18748;SDS011;9503;53.560;10.246;2023-05-06T04:03:25;14.73;;;7.33;;
18748;SDS011;9503;53.560;10.246;2023-05-06T04:05:52;9.73;;;6.77;;
18748;SDS011;9503;53.560;10.246;2023-05-06T04:08:18;19.33;;;8.77;;
18748;SDS011;9503;53.560;10.246;2023-05-06T04:10:46;15.97;;;7.20;;
18748;SDS011;9503;53.560;10.246;2023-05-06T04:13:13;18.67;;;8.20;;
18748;SDS011;9503;53.560;10.246;2023-05-06T04:15:39;14.53;;;8.20;;
18748;SDS011;9503;53.560;10.246;2023-05-06T04:18:06;11.03;;;7.67;;
18748;SDS011;9503;53.560;10.246;2023-05-06T04:20:33;13.90;;;7.67;;
18748;SDS011;9503;53.560;10.246;2023-05-06T04:23:00;13.17;;;7.07;;
18748;SDS011;9503;53.560;10.246;2023-05-06T04:25:26;16.20;;;8.03;;
18748;SDS011;9503;53.560;10.246;2023-05-06T04:27:55;16.00;;;7.70;;
18748;SDS011;9503;53.560;10.246;2023-05-06T04:30:21;17.13;;;8.50;;
18748;SDS011;9503;53.560;10.246;2023-05-06T04:32:48;9.87;;;7.07;;
18748;SDS011;9503;53.560;10.246;2023-05-06T04:35:15;14.23;;;8.10;;
18748;SDS011;9503;53.560;10.246;2023-05-06T04:37:42;18.17;;;8.27;;
18748;SDS011;9503;53.560;10.246;2023-05-06T04:40:09;15.50;;;8.40;;
18748;SDS011;9503;53.560;10.246;2023-05-06T04:42:37;14.37;;;7.93;;
18748;SDS011;9503;53.560;10.246;2023-05-06T04:45:06;15.07;;;8.20;;
18748;SDS011;9503;53.560;10.246;2023-05-06T04:47:33;15.47;;;7.97;;
18748;SDS011;9503;53.560;10.246;2023-05-06T04:50:00;12.20;;;8.07;;
18748;SDS011;9503;53.560;10.246;2023-05-06T04:52:27;16.43;;;7.70;;
18748;SDS011;9503;53.560;10.246;2023-05-06T04:54:53;14.60;;;8.30;;
18748;SDS011;9503;53.560;10.246;2023-05-06T04:57:20;18.57;;;8.47;;
18748;SDS011;9503;53.560;10.246;2023-05-06T04:59:46;14.17;;;7.40;;
18748;SDS011;9503;53.560;10.246;2023-05-06T05:02:14;16.50;;;8.27;;
18748;SDS011;9503;53.560;10.246;2023-05-06T05:04:41;13.03;;;8.47;;
18748;SDS011;9503;53.560;10.246;2023-05-06T05:07:07;15.93;;;7.67;;
18748;SDS011;9503;53.560;10.246;2023-05-06T05:09:34;17.40;;;8.10;;
18748;SDS011;9503;53.560;10.246;2023-05-06T05:12:01;13.50;;;7.40;;
18748;SDS011;9503;53.560;10.246;2023-05-06T05:14:27;14.37;;;8.90;;
18748;SDS011;9503;53.560;10.246;2023-05-06T05:16:54;15.07;;;7.77;;
18748;SDS011;9503;53.560;10.246;2023-05-06T05:19:22;16.90;;;7.80;;
18748;SDS011;9503;53.560;10.246;2023-05-06T05:21:49;12.37;;;7.60;;
18748;SDS011;9503;53.560;10.246;2023-05-06T05:24:15;13.83;;;8.33;;
18748;SDS011;9503;53.560;10.246;2023-05-06T05:26:42;14.60;;;7.40;;
18748;SDS011;9503;53.560;10.246;2023-05-06T05:29:08;12.50;;;7.90;;
18748;SDS011;9503;53.560;10.246;2023-05-06T05:31:35;11.73;;;7.50;;
18748;SDS011;9503;53.560;10.246;2023-05-06T05:34:02;11.37;;;7.77;;
18748;SDS011;9503;53.560;10.246;2023-05-06T05:36:30;14.40;;;7.43;;
18748;SDS011;9503;53.560;10.246;2023-05-06T05:38:56;13.87;;;8.03;;
18748;SDS011;9503;53.560;10.246;2023-05-06T05:41:23;13.37;;;7.97;;
18748;SDS011;9503;53.560;10.246;2023-05-06T05:43:50;15.67;;;8.23;;
18748;SDS011;9503;53.560;10.246;2023-05-06T05:46:17;16.40;;;8.73;;
18748;SDS011;9503;53.560;10.246;2023-05-06T05:48:43;15.07;;;9.00;;
18748;SDS011;9503;53.560;10.246;2023-05-06T05:51:10;19.27;;;8.77;;
18748;SDS011;9503;53.560;10.246;2023-05-06T05:53:38;12.30;;;7.63;;
18748;SDS011;9503;53.560;10.246;2023-05-06T05:56:05;18.57;;;8.07;;
18748;SDS011;9503;53.560;10.246;2023-05-06T05:58:32;19.53;;;8.33;;
18748;SDS011;9503;53.560;10.246;2023-05-06T06:00:59;13.63;;;8.77;;
18748;SDS011;9503;53.560;10.246;2023-05-06T06:03:25;14.60;;;7.97;;
18748;SDS011;9503;53.560;10.246;2023-05-06T06:05:52;18.67;;;9.57;;
18748;SDS011;9503;53.560;10.246;2023-05-06T06:08:19;14.00;;;8.83;;
18748;SDS011;9503;53.560;10.246;2023-05-06T06:10:47;13.43;;;8.63;;
18748;SDS011;9503;53.560;10.246;2023-05-06T06:13:14;16.20;;;8.97;;
18748;SDS011;9503;53.560;10.246;2023-05-06T06:15:40;14.37;;;8.03;;
18748;SDS011;9503;53.560;10.246;2023-05-06T06:18:07;18.20;;;8.60;;
18748;SDS011;9503;53.560;10.246;2023-05-06T06:20:34;17.90;;;9.07;;
18748;SDS011;9503;53.560;10.246;2023-05-06T06:23:00;13.23;;;7.90;;
18748;SDS011;9503;53.560;10.246;2023-05-06T06:25:27;13.23;;;8.73;;
18748;SDS011;9503;53.560;10.246;2023-05-06T06:27:55;14.07;;;8.73;;
18748;SDS011;9503;53.560;10.246;2023-05-06T06:30:22;15.10;;;7.87;;
18748;SDS011;9503;53.560;10.246;2023-05-06T06:32:49;14.00;;;8.43;;
18748;SDS011;9503;53.560;10.246;2023-05-06T06:35:18;14.97;;;8.73;;
18748;SDS011;9503;53.560;10.246;2023-05-06T06:37:45;13.13;;;8.60;;
18748;SDS011;9503;53.560;10.246;2023-05-06T06:40:12;15.03;;;9.60;;
18748;SDS011;9503;53.560;10.246;2023-05-06T06:42:39;16.13;;;9.23;;
18748;SDS011;9503;53.560;10.246;2023-05-06T06:45:08;17.53;;;10.63;;
18748;SDS011;9503;53.560;10.246;2023-05-06T06:47:35;14.27;;;9.17;;
18748;SDS011;9503;53.560;10.246;2023-05-06T06:50:02;17.27;;;9.30;;
18748;SDS011;9503;53.560;10.246;2023-05-06T06:52:28;15.43;;;9.07;;
18748;SDS011;9503;53.560;10.246;2023-05-06T06:54:55;13.10;;;7.93;;
18748;SDS011;9503;53.560;10.246;2023-05-06T06:57:22;13.30;;;8.30;;
18748;SDS011;9503;53.560;10.246;2023-05-06T06:59:48;15.13;;;8.67;;
18748;SDS011;9503;53.560;10.246;2023-05-06T07:02:17;15.37;;;8.43;;
18748;SDS011;9503;53.560;10.246;2023-05-06T07:04:44;12.50;;;8.33;;
18748;SDS011;9503;53.560;10.246;2023-05-06T07:07:11;12.67;;;8.23;;
18748;SDS011;9503;53.560;10.246;2023-05-06T07:09:37;10.87;;;7.77;;
18748;SDS011;9503;53.560;10.246;2023-05-06T07:12:04;12.13;;;8.23;;
18748;SDS011;9503;53.560;10.246;2023-05-06T07:14:31;13.30;;;8.50;;
18748;SDS011;9503;53.560;10.246;2023-05-06T07:16:58;13.67;;;8.47;;
18748;SDS011;9503;53.560;10.246;2023-05-06T07:19:26;14.13;;;8.77;;
18748;SDS011;9503;53.560;10.246;2023-05-06T07:21:53;14.37;;;8.63;;
18748;SDS011;9503;53.560;10.246;2023-05-06T07:24:20;11.20;;;8.33;;
18748;SDS011;9503;53.560;10.246;2023-05-06T07:26:47;17.37;;;9.27;;
18748;SDS011;9503;53.560;10.246;2023-05-06T07:29:14;12.20;;;7.90;;
18748;SDS011;9503;53.560;10.246;2023-05-06T07:31:41;13.17;;;7.80;;
18748;SDS011;9503;53.560;10.246;2023-05-06T07:34:07;11.73;;;7.73;;
18748;SDS011;9503;53.560;10.246;2023-05-06T07:36:35;14.90;;;8.53;;
18748;SDS011;9503;53.560;10.246;2023-05-06T07:39:04;11.27;;;7.50;;
18748;SDS011;9503;53.560;10.246;2023-05-06T07:41:31;15.73;;;8.03;;
18748;SDS011;9503;53.560;10.246;2023-05-06T07:43:58;11.07;;;7.83;;
18748;SDS011;9503;53.560;10.246;2023-05-06T07:46:24;14.70;;;9.20;;
18748;SDS011;9503;53.560;10.246;2023-05-06T07:48:51;14.00;;;8.20;;
18748;SDS011;9503;53.560;10.246;2023-05-06T07:51:17;14.00;;;8.93;;
18748;SDS011;9503;53.560;10.246;2023-05-06T07:53:46;14.27;;;8.03;;
18748;SDS011;9503;53.560;10.246;2023-05-06T07:56:12;13.83;;;8.20;;
18748;SDS011;9503;53.560;10.246;2023-05-06T07:58:39;13.23;;;8.00;;
18748;SDS011;9503;53.560;10.246;2023-05-06T08:01:05;11.63;;;7.33;;
18748;SDS011;9503;53.560;10.246;2023-05-06T08:03:32;12.63;;;7.60;;
18748;SDS011;9503;53.560;10.246;2023-05-06T08:05:59;16.13;;;8.40;;
18748;SDS011;9503;53.560;10.246;2023-05-06T08:08:25;15.17;;;8.50;;
18748;SDS011;9503;53.560;10.246;2023-05-06T08:10:54;12.97;;;7.60;;
18748;SDS011;9503;53.560;10.246;2023-05-06T08:13:21;15.20;;;7.70;;
18748;SDS011;9503;53.560;10.246;2023-05-06T08:15:47;11.60;;;7.70;;
18748;SDS011;9503;53.560;10.246;2023-05-06T08:18:14;13.83;;;8.13;;
18748;SDS011;9503;53.560;10.246;2023-05-06T08:20:40;14.03;;;7.33;;
18748;SDS011;9503;53.560;10.246;2023-05-06T08:23:07;12.80;;;7.93;;
18748;SDS011;9503;53.560;10.246;2023-05-06T08:25:34;10.77;;;7.10;;
18748;SDS011;9503;53.560;10.246;2023-05-06T08:28:02;13.87;;;7.27;;
18748;SDS011;9503;53.560;10.246;2023-05-06T08:30:28;14.43;;;7.93;;
18748;SDS011;9503;53.560;10.246;2023-05-06T08:32:55;16.10;;;7.57;;
18748;SDS011;9503;53.560;10.246;2023-05-06T08:35:22;12.07;;;7.93;;
18748;SDS011;9503;53.560;10.246;2023-05-06T08:37:48;15.17;;;8.10;;
18748;SDS011;9503;53.560;10.246;2023-05-06T08:40:16;15.50;;;8.13;;
18748;SDS011;9503;53.560;10.246;2023-05-06T08:42:44;13.17;;;8.13;;
18748;SDS011;9503;53.560;10.246;2023-05-06T08:45:13;15.40;;;8.10;;
18748;SDS011;9503;53.560;10.246;2023-05-06T08:47:40;14.20;;;8.30;;
18748;SDS011;9503;53.560;10.246;2023-05-06T08:50:08;13.60;;;8.03;;
18748;SDS011;9503;53.560;10.246;2023-05-06T08:52:35;13.10;;;7.77;;
18748;SDS011;9503;53.560;10.246;2023-05-06T08:55:03;13.20;;;8.40;;
18748;SDS011;9503;53.560;10.246;2023-05-06T08:57:31;13.43;;;7.30;;
18748;SDS011;9503;53.560;10.246;2023-05-06T08:59:58;15.43;;;7.77;;
18748;SDS011;9503;53.560;10.246;2023-05-06T09:02:27;12.20;;;7.50;;
18748;SDS011;9503;53.560;10.246;2023-05-06T09:04:54;12.87;;;8.17;;
18748;SDS011;9503;53.560;10.246;2023-05-06T09:07:21;12.03;;;7.60;;
18748;SDS011;9503;53.560;10.246;2023-05-06T09:09:49;13.77;;;7.37;;
18748;SDS011;9503;53.560;10.246;2023-05-06T09:12:16;13.70;;;7.93;;
18748;SDS011;9503;53.560;10.246;2023-05-06T09:14:43;13.13;;;8.27;;
18748;SDS011;9503;53.560;10.246;2023-05-06T09:17:16;11.17;;;7.57;;
18748;SDS011;9503;53.560;10.246;2023-05-06T09:19:49;16.63;;;7.97;;
18748;SDS011;9503;53.560;10.246;2023-05-06T09:22:17;13.13;;;7.73;;
18748;SDS011;9503;53.560;10.246;2023-05-06T09:24:46;12.57;;;7.90;;
18748;SDS011;9503;53.560;10.246;2023-05-06T09:27:20;12.17;;;8.27;;
18748;SDS011;9503;53.560;10.246;2023-05-06T09:29:57;14.67;;;8.37;;
18748;SDS011;9503;53.560;10.246;2023-05-06T09:32:25;15.00;;;7.87;;
18748;SDS011;9503;53.560;10.246;2023-05-06T09:34:53;11.40;;;7.70;;
18748;SDS011;9503;53.560;10.246;2023-05-06T09:37:20;15.03;;;8.10;;
18748;SDS011;9503;53.560;10.246;2023-05-06T09:39:47;8.77;;;6.97;;
18748;SDS011;9503;53.560;10.246;2023-05-06T09:42:15;14.47;;;8.93;;
18748;SDS011;9503;53.560;10.246;2023-05-06T09:44:41;10.90;;;8.17;;
18748;SDS011;9503;53.560;10.246;2023-05-06T09:47:09;11.77;;;7.23;;
18748;SDS011;9503;53.560;10.246;2023-05-06T09:49:35;12.10;;;7.10;;
18748;SDS011;9503;53.560;10.246;2023-05-06T09:52:04;13.83;;;6.90;;
18748;SDS011;9503;53.560;10.246;2023-05-06T09:54:32;13.33;;;7.50;;
18748;SDS011;9503;53.560;10.246;2023-05-06T09:57:00;11.03;;;7.20;;
18748;SDS011;9503;53.560;10.246;2023-05-06T09:59:29;10.50;;;6.77;;
18748;SDS011;9503;53.560;10.246;2023-05-06T10:01:57;10.40;;;6.83;;
18748;SDS011;9503;53.560;10.246;2023-05-06T10:04:24;10.80;;;7.00;;
18748;SDS011;9503;53.560;10.246;2023-05-06T10:06:52;11.97;;;6.93;;
18748;SDS011;9503;53.560;10.246;2023-05-06T10:09:22;16.03;;;7.60;;
18748;SDS011;9503;53.560;10.246;2023-05-06T10:11:49;11.73;;;7.10;;
18748;SDS011;9503;53.560;10.246;2023-05-06T10:14:17;12.90;;;7.40;;
18748;SDS011;9503;53.560;10.246;2023-05-06T10:16:44;11.97;;;7.63;;
18748;SDS011;9503;53.560;10.246;2023-05-06T10:19:12;11.20;;;6.97;;
18748;SDS011;9503;53.560;10.246;2023-05-06T10:21:42;13.17;;;7.40;;
18748;SDS011;9503;53.560;10.246;2023-05-06T10:24:17;15.80;;;7.30;;
18748;SDS011;9503;53.560;10.246;2023-05-06T10:26:49;16.17;;;8.23;;
18748;SDS011;9503;53.560;10.246;2023-05-06T10:29:18;16.00;;;8.10;;
18748;SDS011;9503;53.560;10.246;2023-05-06T10:31:47;11.17;;;8.10;;
18748;SDS011;9503;53.560;10.246;2023-05-06T10:34:18;16.33;;;7.93;;
18748;SDS011;9503;53.560;10.246;2023-05-06T10:36:47;10.67;;;7.07;;
18748;SDS011;9503;53.560;10.246;2023-05-06T10:39:17;12.33;;;7.67;;
18748;SDS011;9503;53.560;10.246;2023-05-06T10:41:44;12.40;;;7.17;;
18748;SDS011;9503;53.560;10.246;2023-05-06T10:44:12;17.40;;;9.00;;
18748;SDS011;9503;53.560;10.246;2023-05-06T10:46:55;13.37;;;8.10;;
18748;SDS011;9503;53.560;10.246;2023-05-06T10:49:23;14.10;;;8.10;;
18748;SDS011;9503;53.560;10.246;2023-05-06T10:52:07;14.73;;;8.50;;
18748;SDS011;9503;53.560;10.246;2023-05-06T10:54:45;12.90;;;7.67;;
18748;SDS011;9503;53.560;10.246;2023-05-06T10:57:13;15.73;;;8.17;;
18748;SDS011;9503;53.560;10.246;2023-05-06T10:59:44;13.10;;;7.57;;
18748;SDS011;9503;53.560;10.246;2023-05-06T11:02:12;14.97;;;8.13;;
18748;SDS011;9503;53.560;10.246;2023-05-06T11:04:39;12.30;;;7.10;;
18748;SDS011;9503;53.560;10.246;2023-05-06T11:07:07;12.27;;;7.63;;
18748;SDS011;9503;53.560;10.246;2023-05-06T11:12:20;16.30;;;7.90;;
18748;SDS011;9503;53.560;10.246;2023-05-06T11:14:48;12.97;;;7.53;;
18748;SDS011;9503;53.560;10.246;2023-05-06T11:20:18;11.53;;;7.63;;
18748;SDS011;9503;53.560;10.246;2023-05-06T11:22:46;11.53;;;7.97;;
18748;SDS011;9503;53.560;10.246;2023-05-06T11:25:13;12.10;;;7.30;;
18748;SDS011;9503;53.560;10.246;2023-05-06T11:28:05;14.57;;;7.83;;
18748;SDS011;9503;53.560;10.246;2023-05-06T11:30:34;12.53;;;7.70;;
18748;SDS011;9503;53.560;10.246;2023-05-06T11:33:02;14.17;;;8.57;;
18748;SDS011;9503;53.560;10.246;2023-05-06T11:35:33;13.57;;;7.80;;
18748;SDS011;9503;53.560;10.246;2023-05-06T11:38:00;13.97;;;7.97;;
18748;SDS011;9503;53.560;10.246;2023-05-06T11:40:27;15.37;;;8.70;;
18748;SDS011;9503;53.560;10.246;2023-05-06T11:42:54;15.93;;;8.63;;
18748;SDS011;9503;53.560;10.246;2023-05-06T11:45:21;14.37;;;7.80;;
18748;SDS011;9503;53.560;10.246;2023-05-06T11:47:49;14.20;;;7.90;;
18748;SDS011;9503;53.560;10.246;2023-05-06T11:50:20;15.23;;;8.17;;
18748;SDS011;9503;53.560;10.246;2023-05-06T11:52:47;14.03;;;8.27;;
18748;SDS011;9503;53.560;10.246;2023-05-06T11:55:13;18.73;;;8.97;;
18748;SDS011;9503;53.560;10.246;2023-05-06T11:57:41;16.27;;;8.30;;
18748;SDS011;9503;53.560;10.246;2023-05-06T12:00:10;18.47;;;9.37;;
18748;SDS011;9503;53.560;10.246;2023-05-06T12:02:38;15.20;;;8.63;;
18748;SDS011;9503;53.560;10.246;2023-05-06T12:05:07;16.97;;;9.03;;
18748;SDS011;9503;53.560;10.246;2023-05-06T12:07:34;14.07;;;8.90;;
18748;SDS011;9503;53.560;10.246;2023-05-06T12:10:02;14.73;;;8.13;;
18748;SDS011;9503;53.560;10.246;2023-05-06T12:12:30;15.67;;;8.97;;
18748;SDS011;9503;53.560;10.246;2023-05-06T12:14:57;14.50;;;8.47;;
18748;SDS011;9503;53.560;10.246;2023-05-06T12:17:24;11.90;;;7.87;;
18748;SDS011;9503;53.560;10.246;2023-05-06T12:19:51;13.33;;;8.27;;
18748;SDS011;9503;53.560;10.246;2023-05-06T12:22:19;13.53;;;8.30;;
18748;SDS011;9503;53.560;10.246;2023-05-06T12:24:48;16.60;;;8.67;;
18748;SDS011;9503;53.560;10.246;2023-05-06T12:27:27;12.20;;;8.03;;
18748;SDS011;9503;53.560;10.246;2023-05-06T12:29:54;14.17;;;8.43;;
18748;SDS011;9503;53.560;10.246;2023-05-06T12:32:21;12.07;;;7.97;;
18748;SDS011;9503;53.560;10.246;2023-05-06T12:34:48;14.20;;;8.17;;
18748;SDS011;9503;53.560;10.246;2023-05-06T12:37:23;12.87;;;7.50;;
18748;SDS011;9503;53.560;10.246;2023-05-06T12:39:52;11.67;;;7.03;;
18748;SDS011;9503;53.560;10.246;2023-05-06T12:42:19;10.93;;;7.07;;
18748;SDS011;9503;53.560;10.246;2023-05-06T12:44:47;9.17;;;6.30;;
18748;SDS011;9503;53.560;10.246;2023-05-06T12:47:17;12.30;;;6.97;;
18748;SDS011;9503;53.560;10.246;2023-05-06T12:49:45;10.87;;;7.20;;
18748;SDS011;9503;53.560;10.246;2023-05-06T12:52:13;11.40;;;7.40;;
18748;SDS011;9503;53.560;10.246;2023-05-06T12:54:42;14.27;;;7.53;;
18748;SDS011;9503;53.560;10.246;2023-05-06T12:57:10;11.93;;;7.50;;
18748;SDS011;9503;53.560;10.246;2023-05-06T12:59:36;12.47;;;6.57;;
18748;SDS011;9503;53.560;10.246;2023-05-06T13:02:03;14.53;;;6.60;;
18748;SDS011;9503;53.560;10.246;2023-05-06T13:04:31;14.33;;;7.20;;
18748;SDS011;9503;53.560;10.246;2023-05-06T13:06:57;11.77;;;7.47;;
18748;SDS011;9503;53.560;10.246;2023-05-06T13:09:25;14.17;;;7.47;;
18748;SDS011;9503;53.560;10.246;2023-05-06T13:11:53;10.57;;;7.63;;
18748;SDS011;9503;53.560;10.246;2023-05-06T13:14:23;10.40;;;7.33;;
18748;SDS011;9503;53.560;10.246;2023-05-06T13:16:52;13.03;;;7.40;;
18748;SDS011;9503;53.560;10.246;2023-05-06T13:19:18;14.50;;;8.03;;
18748;SDS011;9503;53.560;10.246;2023-05-06T13:21:45;12.80;;;8.37;;
18748;SDS011;9503;53.560;10.246;2023-05-06T13:24:12;12.17;;;8.77;;
18748;SDS011;9503;53.560;10.246;2023-05-06T13:26:39;14.33;;;8.03;;
18748;SDS011;9503;53.560;10.246;2023-05-06T13:29:07;13.57;;;8.93;;
18748;SDS011;9503;53.560;10.246;2023-05-06T13:31:33;14.53;;;9.27;;
18748;SDS011;9503;53.560;10.246;2023-05-06T13:34:00;16.83;;;10.27;;
18748;SDS011;9503;53.560;10.246;2023-05-06T13:36:27;16.97;;;9.90;;
18748;SDS011;9503;53.560;10.246;2023-05-06T13:38:53;15.70;;;9.57;;
18748;SDS011;9503;53.560;10.246;2023-05-06T13:41:20;13.67;;;8.37;;
18748;SDS011;9503;53.560;10.246;2023-05-06T13:43:47;15.50;;;8.83;;
18748;SDS011;9503;53.560;10.246;2023-05-06T13:46:15;18.03;;;8.93;;
18748;SDS011;9503;53.560;10.246;2023-05-06T13:48:41;13.50;;;8.70;;
18748;SDS011;9503;53.560;10.246;2023-05-06T13:51:08;12.53;;;8.57;;
18748;SDS011;9503;53.560;10.246;2023-05-06T13:53:35;15.60;;;8.97;;
18748;SDS011;9503;53.560;10.246;2023-05-06T13:56:03;12.77;;;8.27;;
18748;SDS011;9503;53.560;10.246;2023-05-06T13:58:30;13.97;;;8.20;;
18748;SDS011;9503;53.560;10.246;2023-05-06T14:00:57;14.30;;;8.97;;
18748;SDS011;9503;53.560;10.246;2023-05-06T14:03:25;13.30;;;8.30;;
18748;SDS011;9503;53.560;10.246;2023-05-06T14:05:51;16.47;;;8.33;;
18748;SDS011;9503;53.560;10.246;2023-05-06T14:08:18;13.33;;;8.00;;
18748;SDS011;9503;53.560;10.246;2023-05-06T14:10:44;13.43;;;8.83;;
18748;SDS011;9503;53.560;10.246;2023-05-06T14:13:11;11.50;;;8.23;;
18748;SDS011;9503;53.560;10.246;2023-05-06T14:15:38;13.17;;;8.47;;
18748;SDS011;9503;53.560;10.246;2023-05-06T14:18:04;11.90;;;7.63;;
18748;SDS011;9503;53.560;10.246;2023-05-06T14:20:33;12.63;;;8.93;;
18748;SDS011;9503;53.560;10.246;2023-05-06T14:22:59;11.23;;;7.60;;
18748;SDS011;9503;53.560;10.246;2023-05-06T14:25:26;12.30;;;7.80;;
18748;SDS011;9503;53.560;10.246;2023-05-06T14:27:53;12.30;;;7.20;;
18748;SDS011;9503;53.560;10.246;2023-05-06T14:30:19;12.30;;;7.97;;
18748;SDS011;9503;53.560;10.246;2023-05-06T14:32:46;11.73;;;8.07;;
18748;SDS011;9503;53.560;10.246;2023-05-06T14:35:13;12.87;;;8.50;;
18748;SDS011;9503;53.560;10.246;2023-05-06T14:37:41;12.97;;;8.80;;
18748;SDS011;9503;53.560;10.246;2023-05-06T14:40:08;14.77;;;8.10;;
18748;SDS011;9503;53.560;10.246;2023-05-06T14:42:35;13.60;;;8.43;;
18748;SDS011;9503;53.560;10.246;2023-05-06T14:45:02;15.67;;;8.77;;